MAPA DE AEROPUERTO

INFORMACIÓN METAR y TAF

METAR FOR LEVC
ADDS - METARS form results

(1716 UTC 27 February 2020)
Data provider http://aviationweather.gov/metar/data/
 
METAR text: LEVC 271700Z 24018KT CAVOK 23/03 Q1016 NOSIG
Conditions at: LEVC (VALENCIA (CIV/MI, ES) observed 1700 UTC 27 February 2020
Temperature: 23.0°C (73°F)
Dewpoint: 3.0°C (37°F) [RH = 27%]
Pressure (altimeter): 30.00 inches Hg (1016.0 mb)
Winds: from the WSW (240 degrees) at 21 MPH (18 knots; 9.3 m/s)
Visibility: 6 or more miles (10+ km)
Ceiling: ceiling and visibility are OK
Clouds: unknown
Weather: no significant weather observed at this time

METAR text: LEVC 271630Z 24018KT CAVOK 24/03 Q1016 NOSIG
Conditions at: LEVC (VALENCIA (CIV/MI, ES) observed 1630 UTC 27 February 2020
Temperature: 24.0°C (75°F)
Dewpoint: 3.0°C (37°F) [RH = 25%]
Pressure (altimeter): 30.00 inches Hg (1016.0 mb)
Winds: from the WSW (240 degrees) at 21 MPH (18 knots; 9.3 m/s)
Visibility: 6 or more miles (10+ km)
Ceiling: ceiling and visibility are OK
Clouds: unknown
Weather: no significant weather observed at this time

Forecast for: LEVC (VALENCIA (CIV/MI, ES)
Text: TAF LEVC 271100Z 2712/2812 27015KT CAVOK TX25/2713Z TN07/2806Z
Forecast period: 1200 to 1600 UTC 27 February 2020
Forecast type: FROM: standard forecast or significant change
Winds: from the W (270 degrees) at 17 MPH (15 knots; 7.7 m/s)
Visibility: 6 or more miles 10+ km)
Ceiling: unknown
Clouds: missing
Weather: no significant weather forecast for this period
Text: PROB40
Forecast period: 1200 to 1400 UTC 27 February 2020
Forecast type: TEMPORARY: The following changes expected for less than half the time period
Winds: from the W (270 degrees) at 23 MPH (20 knots; 10.3 m/s)
gusting to 34 MPH (30 knots; 15.4 m/s)
Visibility: missing
Ceiling: unknown
Clouds: missing
Weather: no significant weather forecast for this period
Text: TEMPO 2712/2714 27020G30KT
Forecast period: 1600 to 2300 UTC 27 February 2020
Forecast type: BECOMING: Conditions expected to become as follows by 1800 UTC 27 February 2020
Winds: from the WNW (300 degrees) at 9 MPH (8 knots; 4.1 m/s)
Visibility: 6 or more miles 10+ km)
Ceiling: unknown
Clouds: missing
Weather: no significant weather forecast for this period
Text: BECMG 2716/2718 30008KT
Forecast period: 2300 UTC 27 February 2020 to 1200 UTC 28 February 2020
Forecast type: BECOMING: Conditions expected to become as follows by 0100 UTC 28 February 2020
Winds: variable direction winds at 3 MPH (3 knots; 1.5 m/s)
Visibility: 6 or more miles 10+ km)
Ceiling: unknown
Clouds: missing
Weather: no significant weather forecast for this period